Skip to Main Content

If you see just a black screen when trying to view Live Traffic cameras, please click inside the window to get video to play. An update to certain browsers is not allowing the video to auto-play when the window opens. 

SEARCH:
Location Air RH Dwp Precip Type Wind Speed Wind Gust Direction Pavement Temperature Date/Time
Hatem Bridge US 40 E/B 71 95 69 Rain 4 mph 6 mph E 75 - 75 7/22/2018 1:47:00 PM
I-270 at I-370 75 81 69 None Calm Calm E 87 - 89 7/22/2018 1:45:00 PM
I-270 at MD-109 78 79 71 None 4 mph 9 mph NE 94 - 94 7/22/2018 1:45:00 PM
I-495 at American Legion Bridge 76 99 76 Rain Calm 7 mph SE 81 - 85 7/22/2018 1:45:00 PM
I-68 at Savage Mt 66 100 66 None 5 mph 10 mph E 78 - 79 7/22/2018 1:45:00 PM
I-68 at Sideling Hill 70 95 69 None Calm 5 mph E 82 - 84 7/22/2018 1:45:00 PM
I-68 at US 219 68 85 64 None 10 mph 20 mph SE 88 - 92 7/22/2018 1:45:00 PM
I-68 at WV Line 72 73 64 Rain 7 mph 18 mph SE 78 - 79 7/22/2018 1:45:00 PM
I-695 at I-83 75 77 68 None Calm 13 mph NE 94 - 97 7/22/2018 1:45:00 PM
I-695 on FSK Bridge 72 93 70 None 8 mph 11 mph S 80 - 80 7/22/2018 1:46:00 PM
I-70 at Fred-Wash Co. 70 96 69 None Calm 4 mph N 79 - 82 7/22/2018 1:45:00 PM
I-70 at I-695 75 78 68 None 6 mph 15 mph E 77 - 98 7/22/2018 1:45:00 PM
I-70 at I-81 76 78 69 None 8 mph 12 mph SE - 7/22/2018 1:45:00 PM
I-70 at MD-27 77 82 71 None Calm 8 mph E 95 - 98 7/22/2018 1:45:00 PM
I-70 at MD-32 75 80 69 Rain Calm 5 mph N 92 - 94 7/22/2018 1:45:00 PM
I-83 at MD-137 77 84 72 None 5 mph 13 mph E 103 - 103 7/22/2018 1:45:00 PM
I-95 at I-695 NE 75 83 69 None 4 mph 6 mph E 100 - 97 7/22/2018 1:46:00 PM
I-95 at Patuxent River 77 80 71 None Calm 7 mph E 87 - 89 7/22/2018 1:45:00 PM
I-95 at Tydings Bridge 71 97 70 None 5 mph 8 mph E 76 - 77 7/22/2018 1:45:00 PM
I-95/495 at I-295 77 85 73 Rain 6 mph 11 mph W 74 - 77 7/22/2018 1:45:00 PM
I-97 at MD-100 - - - No Data Available - - No Data Available -
I-97 at MD-32 76 79 69 None 4 mph 7 mph N 100 - 93 7/22/2018 1:45:00 PM
IS 70 W of I-270 - - - No Data Available - - No Data Available 96 - 96 7/22/2018 1:45:00 PM
MD 136 @ MD 646 72 94 70 No Data Available Calm 8 mph SE 86 - 86 7/22/2018 1:45:00 PM
MD 20 at MD 21 - - - No Data Available - - No Data Available -
MD 23 at Meadowtree Road 73 84 68 No Data Available 5 mph 10 mph S 93 - 93 7/22/2018 1:45:00 PM
MD 231 at Patuxent River 74 98 74 None 8 mph 18 mph W 75 - 78 7/22/2018 1:45:00 PM
MD 24 at Jarrettsville Road 72 93 70 No Data Available Calm 8 mph SE 86 - 86 7/22/2018 1:45:00 PM
MD 260 at Cox Rd 75 87 71 None Calm 7 mph NE 99 - 99 7/22/2018 1:45:00 PM
MD-135 at Salt Dome 65 100 65 None 5 mph 10 mph E 86 - 86 7/22/2018 1:45:00 PM
MD-140 at MD-97 75 80 68 None Calm 10 mph S 90 - 94 7/22/2018 1:45:00 PM
MD-200 EB at Bonifant Rd - - - No Data Available - - No Data Available -
MD-200 WB at Muncaster Mill Rd 75 82 69 None Calm 7 mph E 84 - 86 7/22/2018 1:47:00 PM
MD-213 at Sassafras River 76 94 74 None Calm 8 mph N 81 - 81 7/22/2018 1:45:00 PM
MD-24 at Rock St Park 72 97 72 None Calm Calm N 80 - 80 7/22/2018 1:45:00 PM
MD-30 at PA Line 75 84 70 None Calm 9 mph E 95 - 95 7/22/2018 1:45:00 PM
MD-33 at Knapps Narrows Drawbridge 78 83 72 None 6 mph 13 mph N 115 - 115 7/22/2018 1:45:00 PM
MD-344 at MD-224 74 97 73 None Calm Calm E 89 - 89 7/22/2018 1:45:00 PM
MD-4 at Patuxent River 83 85 78 None 43 mph 47 mph SE 91 - 95 7/22/2018 1:45:00 PM
MD-404 at Choptank River 85 66 73 None 6 mph 15 mph SE 112 - 113 7/22/2018 1:45:00 PM
MD-43 at MD-150 74 96 73 None 6 mph 9 mph E 84 - 84 7/22/2018 1:45:00 PM
MD-51 at Oldtown Salt Dome 76 75 68 None 4 mph 8 mph NE 92 - 92 7/22/2018 1:45:00 PM
MD-64 at MD-418 75 75 67 None 4 mph 13 mph SE 99 - 99 7/22/2018 1:45:00 PM
US 301 at MD 305 72 98 72 None Calm 5 mph E 84 - 87 7/22/2018 1:45:00 PM
US-1 at Baltimore / Harford Co. Line 73 90 70 None Calm 6 mph N 84 - 84 7/22/2018 1:45:00 PM
US-1 at Conowingo Dam 72 99 72 Rain Calm Calm N 75 - 75 7/22/2018 1:45:00 PM
US-13 at US-113 83 77 75 None 10 mph 22 mph S 114 - 115 7/22/2018 1:45:00 PM
US-13 at US-50 83 72 74 None 17 mph 28 mph S 112 - 112 7/22/2018 1:45:00 PM
US-15 at MD-140 74 81 68 None Calm 7 mph SE 87 - 90 7/22/2018 1:45:00 PM
US-301 at MD-5 74 95 73 None Calm 7 mph NE 82 - 85 7/22/2018 1:45:00 PM
US-301 at Potomac 72 100 72 None Calm 4 mph E 77 - 83 7/22/2018 1:46:00 PM
US-340 at MD-180 74 83 68 None 8 mph 16 mph SE 89 - 90 7/22/2018 1:45:00 PM
US-50 at Choptank 82 82 76 None 8 mph 18 mph SE 96 - 98 7/22/2018 1:45:00 PM
US-50 at I-95 81 78 73 None Calm 5 mph NE 90 - 90 7/22/2018 1:45:00 PM
US-50 at MD-2 76 87 72 None Calm 8 mph NW 92 - 94 7/22/2018 1:45:00 PM
US-50 at MD-331 86 69 74 None 10 mph 20 mph SE 110 - 114 7/22/2018 1:45:00 PM
US-50 at OC Drawbridge 78 91 75 None 13 mph 21 mph SE 116 - 116 7/22/2018 1:45:00 PM
US-50 at Table Rock Rd 68 87 64 None 8 mph 18 mph E 87 - 87 7/22/2018 1:45:00 PM
US-50 Kent Narrow Bridge 76 93 74 None 6 mph 11 mph N 93 - 94 7/22/2018 1:45:00 PM
WPL Pier 31 72 91 69 None 7 mph 8 mph N 96 - 96 7/22/2018 1:47:00 PM
Location Air RH Dwp Precip Type Wind Speed Wind Gust Direction Pavement Temperature Date/Time